Eships Dana — ZDJT6 — position and weather

sailwx.info

Track history (hours):
 
Tides and Currents Weather Stations Pressure Air Temp Water Temp Dewpoint Dewpoint Depression Visibility Wind Speed Wind Dir Waves Ship Positions

Eships Dana

Last reported at 2015-Mar-01 15:33 UTC. Time now 2015-Mar-01 23:27 UTC.
Position N 59°16' E 005°30'.

Length 116 m; draft 5.5 m.

Type: Tanker. MMSI: 236566000.

Date/timePositionNaut miles runAvg speedWind from/ knotsBaromVisibWave heightAir tempDewpointWater temp
2015-Mar-01 15:33N 59°16' E 005°30'2 2.2
2015-Mar-01 14:31N 59°14' E 005°31'0 0.1
2015-Mar-01 13:13N 59°14' E 005°31'0 0.1
2015-Mar-01 12:07N 59°14' E 005°31'0 0.0
2015-Mar-01 11:31N 59°14' E 005°31'0 0.0
2015-Mar-01 10:28N 59°14' E 005°31'0 0.0
2015-Mar-01 09:31N 59°14' E 005°31'0 0.0
2015-Mar-01 08:31N 59°14' E 005°31'0 0.0
2015-Mar-01 07:25N 59°14' E 005°31'0 0.0
2015-Mar-01 06:31N 59°14' E 005°30'0 0.0
2015-Mar-01 05:28N 59°14' E 005°30'0 0.0
2015-Mar-01 04:31N 59°14' E 005°30'0 0.0
2015-Mar-01 03:22N 59°14' E 005°30'0 0.0
2015-Mar-01 02:31N 59°14' E 005°30'0 0.0
2015-Mar-01 01:31N 59°14' E 005°30'0 0.0
2015-Mar-01 00:31N 59°14' E 005°30'0 0.0
2015-Feb-28 23:31N 59°14' E 005°31'0 0.0
2015-Feb-28 22:25N 59°14' E 005°30'0 0.0
2015-Feb-28 21:22N 59°14' E 005°30'0 0.0
2015-Feb-28 20:31N 59°14' E 005°30'0 0.0
2015-Feb-28 19:28N 59°14' E 005°30'0 0.0
2015-Feb-28 18:31N 59°14' E 005°31'0 0.0
2015-Feb-28 17:28N 59°14' E 005°30'6 6.7
2015-Feb-28 16:33N 59°08' E 005°30'9 9.1
2015-Feb-28 15:33N 59°03' E 005°15'1313.2
2015-Feb-28 14:33N 58°50' E 005°10'2914.4
2015-Feb-28 12:32N 58°21' E 005°07'41013.5
2015-Feb-27 06:09N 51°41' E 002°30'813.9
2015-Feb-27 05:34N 51°35' E 002°21'1313.2
2015-Feb-27 04:33N 51°23' E 002°12'1212.4
2015-Feb-27 03:33N 51°13' E 001°60'1312.5
2015-Feb-27 02:33N 51°05' E 001°44'1211.5
2015-Feb-27 01:33N 50°57' E 001°31'1111.1
2015-Feb-27 00:32N 50°47' E 001°24'8111.6
2015-Feb-26 17:32N 49°51' W 000°08'1313.2
2015-Feb-26 16:33N 49°38' W 000°05'1211.9
2015-Feb-26 15:33N 49°29' E 000°06'3 3.5
2015-Feb-26 14:33N 49°29' E 000°12'0 0.3
2015-Feb-26 13:32N 49°29' E 000°12'0 0.0
2015-Feb-26 12:29N 49°29' E 000°12'0 0.0
2015-Feb-26 11:29N 49°29' E 000°12'0 0.0
2015-Feb-26 10:29N 49°29' E 000°12'0 0.0
2015-Feb-26 09:29N 49°29' E 000°12'0 0.0
2015-Feb-26 08:29N 49°29' E 000°12'0 0.0
2015-Feb-26 07:29N 49°29' E 000°12'0 0.0
2015-Feb-26 06:29N 49°29' E 000°12'0 0.0
2015-Feb-26 05:29N 49°29' E 000°12'0 0.0
2015-Feb-26 04:29N 49°29' E 000°12'0 0.0
2015-Feb-26 03:29N 49°29' E 000°12'0 0.0
2015-Feb-26 02:29N 49°29' E 000°12'0 0.0
2015-Feb-26 01:32N 49°29' E 000°12'0 0.0
2015-Feb-26 00:32N 49°29' E 000°12'0 0.0
2015-Feb-25 23:32N 49°29' E 000°12'0 0.0
2015-Feb-25 22:32N 49°29' E 000°12'0 0.0
2015-Feb-25 21:32N 49°29' E 000°12'0 0.0
2015-Feb-25 20:32N 49°29' E 000°12'0 0.0
2015-Feb-25 19:32N 49°29' E 000°12'0 0.0
2015-Feb-25 18:32N 49°29' E 000°12'0 0.0
2015-Feb-25 17:34N 49°29' E 000°12'2 1.5
2015-Feb-25 16:33N 49°28' E 000°10'10 9.6
2015-Feb-25 15:33N 49°31' W 000°04'3 3.2
2015-Feb-25 14:33N 49°33' W 000°07'0 0.0
2015-Feb-25 13:33N 49°33' W 000°07'0 0.0
2015-Feb-25 12:33N 49°33' W 000°07'0 0.0
2015-Feb-25 11:34N 49°33' W 000°07'0 0.0
2015-Feb-25 10:33N 49°33' W 000°07'0 0.0
2015-Feb-25 09:33N 49°33' W 000°07'0 0.1
2015-Feb-25 08:33N 49°33' W 000°08'0 0.0
2015-Feb-25 07:33N 49°33' W 000°08'0 0.1
2015-Feb-25 06:33N 49°33' W 000°07'0 0.0
2015-Feb-25 05:33N 49°33' W 000°07'0 0.0
2015-Feb-25 04:33N 49°33' W 000°07'0 0.0
2015-Feb-25 03:33N 49°33' W 000°07'0 0.0
2015-Feb-25 02:33N 49°33' W 000°07'0 0.0
2015-Feb-25 01:33N 49°33' W 000°07'0 0.0
2015-Feb-25 00:33N 49°33' W 000°07'0 0.0
2015-Feb-24 23:33N 49°33' W 000°07'0 0.0
2015-Feb-24 22:33N 49°33' W 000°07'0 0.0
2015-Feb-24 21:33N 49°33' W 000°07'0 0.0
2015-Feb-24 20:33N 49°33' W 000°07'0 0.1
2015-Feb-24 19:34N 49°33' W 000°07'0 0.1
2015-Feb-24 18:33N 49°33' W 000°07'0 0.0
2015-Feb-24 17:33N 49°33' W 000°07'0 0.0
2015-Feb-24 16:34N 49°33' W 000°07'0 0.0
2015-Feb-24 15:33N 49°33' W 000°07'0 0.0
2015-Feb-24 14:33N 49°33' W 000°07'0 0.0
2015-Feb-24 13:33N 49°33' W 000°07'0 0.0
2015-Feb-24 12:34N 49°33' W 000°07'0 0.0
2015-Feb-24 11:33N 49°33' W 000°07'0 0.0
2015-Feb-24 10:33N 49°33' W 000°07'0 0.0
2015-Feb-24 09:33N 49°33' W 000°07'0 0.0
2015-Feb-24 08:33N 49°33' W 000°07'0 0.0
2015-Feb-24 07:33N 49°33' W 000°07'0 0.1
2015-Feb-24 06:34N 49°33' W 000°07'0 0.0
2015-Feb-24 05:34N 49°33' W 000°07'0 0.0
2015-Feb-24 04:33N 49°33' W 000°07'0 0.0
2015-Feb-24 03:33N 49°33' W 000°07'0 0.0
2015-Feb-24 02:33N 49°33' W 000°07'0 0.0
2015-Feb-24 01:33N 49°33' W 000°07'0 0.0
2015-Feb-24 00:33N 49°33' W 000°07'0 0.0
2015-Feb-23 23:33N 49°33' W 000°07'0 0.1
2015-Feb-23 22:33N 49°33' W 000°07'0 0.0
2015-Feb-23 21:33N 49°33' W 000°07'0 0.0
2015-Feb-23 20:33N 49°33' W 000°07'0 0.0
2015-Feb-23 19:33N 49°33' W 000°07'0 0.1
2015-Feb-23 18:34N 49°33' W 000°07'0 0.0
2015-Feb-23 17:33N 49°33' W 000°07'0 0.0
2015-Feb-23 16:34N 49°33' W 000°07'0 0.0
2015-Feb-23 15:34N 49°33' W 000°07'0 0.0
2015-Feb-23 14:33N 49°33' W 000°07'0 0.0
2015-Feb-23 13:33N 49°33' W 000°07'0 0.1
2015-Feb-23 12:34N 49°33' W 000°07'7 7.3
2015-Feb-23 11:33N 49°40' W 000°13'1712.4
2015-Feb-23 10:11N 49°57' W 000°12'5211.0
2015-Feb-23 05:31N 50°39' E 000°35'1111.8
2015-Feb-23 04:33N 50°45' E 000°50'10 9.7
2015-Feb-23 03:32N 50°51' E 001°03'8 8.3
2015-Feb-23 02:33N 50°56' E 001°13'7 7.2
2015-Feb-23 01:33N 51°00' E 001°22'6 6.1
2015-Feb-23 00:33N 51°05' E 001°29'8 8.5
2015-Feb-22 23:34N 51°10' E 001°39'1111.1
2015-Feb-22 22:33N 51°18' E 001°51'1010.3
2015-Feb-22 21:33N 51°24' E 002°05'1312.0
2015-Feb-22 20:28N 51°22' E 002°26'1112.5
2015-Feb-22 19:33N 51°23' E 002°44'1110.9
2015-Feb-22 18:33N 51°24' E 003°01'1313.2
2015-Feb-22 17:33N 51°25' E 003°22'1212.5
2015-Feb-22 16:33N 51°28' E 003°41'1 0.9
2015-Feb-22 15:33N 51°28' E 003°43'0 0.0
2015-Feb-22 14:27N 51°28' E 003°43'0 0.0
2015-Feb-22 13:24N 51°28' E 003°43'0 0.0
2015-Feb-22 12:33N 51°28' E 003°43'0 0.0
2015-Feb-22 09:27N 51°28' E 003°43'0 0.0
2015-Feb-22 08:15N 51°28' E 003°43'0 0.0
2015-Feb-22 07:27N 51°28' E 003°43'0 0.0
2015-Feb-22 06:27N 51°28' E 003°43'0 0.0
2015-Feb-22 05:27N 51°28' E 003°43'0 0.0
2015-Feb-22 04:27N 51°28' E 003°43'0 0.0
2015-Feb-22 03:33N 51°28' E 003°43'0 0.0
2015-Feb-22 02:27N 51°28' E 003°43'0 0.0
2015-Feb-22 01:33N 51°28' E 003°43'0 0.0
2015-Feb-22 00:33N 51°28' E 003°43'0 0.0
2015-Feb-21 23:33N 51°28' E 003°43'3 3.0
2015-Feb-21 22:34N 51°26' E 003°39'1312.7
2015-Feb-21 21:33N 51°24' E 003°19'1211.6
2015-Feb-21 20:33N 51°25' E 003°00'1414.2
2015-Feb-21 19:33N 51°38' E 003°11'1212.1
2015-Feb-21 18:32N 51°48' E 003°21'1 1.1
2015-Feb-21 17:13N 51°48' E 003°23'0 0.0
2015-Feb-21 15:19N 51°48' E 003°23'0 0.0
2015-Feb-21 14:04N 51°48' E 003°23'0 0.1
2015-Feb-21 13:16N 51°48' E 003°23'0 0.0
2015-Feb-21 11:16N 51°48' E 003°23'0 0.0
2015-Feb-21 09:13N 51°48' E 003°23'0 0.2
2015-Feb-21 08:31N 51°48' E 003°23'0 0.0
2015-Feb-21 07:22N 51°48' E 003°23'0 0.0
2015-Feb-21 06:22N 51°48' E 003°23'0 0.0
2015-Feb-21 05:07N 51°48' E 003°23'0 0.0
2015-Feb-21 03:07N 51°48' E 003°23'0 0.0
2015-Feb-21 02:10N 51°48' E 003°23'0 0.1
2015-Feb-21 01:28N 51°48' E 003°23'0 0.1
2015-Feb-21 00:31N 51°48' E 003°23'0 0.0
2015-Feb-20 22:31N 51°48' E 003°23'0 0.0
2015-Feb-20 21:31N 51°48' E 003°23'0 0.0
2015-Feb-20 20:07N 51°48' E 003°23'0 0.0
2015-Feb-20 19:31N 51°48' E 003°23'1 0.6
2015-Feb-20 17:33N 51°49' E 003°22'1110.8
2015-Feb-20 16:31N 52°00' E 003°23'1010.5
2015-Feb-20 15:32N 52°05' E 003°37'3 2.0
2015-Feb-20 14:06N 52°08' E 003°39'0 0.0
2015-Feb-20 13:30N 52°08' E 003°39'0 0.0
2015-Feb-20 12:33N 52°08' E 003°39'0 0.1
2015-Feb-20 11:33N 52°08' E 003°39'0 0.0
2015-Feb-20 10:33N 52°08' E 003°39'0 0.0
2015-Feb-20 07:33N 52°08' E 003°39'0 0.0
2015-Feb-20 06:21N 52°08' E 003°39'0 0.0
2015-Feb-20 05:33N 52°08' E 003°39'0 0.0
2015-Feb-20 04:33N 52°08' E 003°39'0 0.0
2015-Feb-20 03:09N 52°08' E 003°39'0 0.0
2015-Feb-20 02:15N 52°08' E 003°39'0 0.0
2015-Feb-20 01:27N 52°08' E 003°39'0 0.0
2015-Feb-20 00:33N 52°08' E 003°39'0 0.0
2015-Feb-19 23:33N 52°08' E 003°39'0 0.0
2015-Feb-19 22:18N 52°08' E 003°39'0 0.0
2015-Feb-19 21:30N 52°08' E 003°39'0 0.0
2015-Feb-19 20:12N 52°08' E 003°39'0 0.0
2015-Feb-19 19:09N 52°08' E 003°39'0 0.0
2015-Feb-19 18:24N 52°08' E 003°39'0 0.0
2015-Feb-19 17:18N 52°08' E 003°39'0 0.0
2015-Feb-19 16:21N 52°08' E 003°39'  
Track history (hours):
 
Tides and Currents Weather Stations Pressure Air Temp Water Temp Dewpoint Dewpoint Depression Visibility Wind Speed Wind Dir Waves Ship Positions

Eships Dana

Last reported at 2015-Mar-01 15:33 UTC. Time now 2015-Mar-01 23:27 UTC.
Position N 59°16' E 005°30'.

Length 116 m; draft 5.5 m.

Type: Tanker. MMSI: 236566000.

Date/timePositionNaut miles runAvg speedWind from/ knotsBaromVisibWave heightAir tempDewpointWater temp
2015-Mar-01 15:33N 59°16' E 005°30'2 2.2
2015-Mar-01 14:31N 59°14' E 005°31'0 0.1
2015-Mar-01 13:13N 59°14' E 005°31'0 0.1
2015-Mar-01 12:07N 59°14' E 005°31'0 0.0
2015-Mar-01 11:31N 59°14' E 005°31'0 0.0
2015-Mar-01 10:28N 59°14' E 005°31'0 0.0
2015-Mar-01 09:31N 59°14' E 005°31'0 0.0
2015-Mar-01 08:31N 59°14' E 005°31'0 0.0
2015-Mar-01 07:25N 59°14' E 005°31'0 0.0
2015-Mar-01 06:31N 59°14' E 005°30'0 0.0
2015-Mar-01 05:28N 59°14' E 005°30'0 0.0
2015-Mar-01 04:31N 59°14' E 005°30'0 0.0
2015-Mar-01 03:22N 59°14' E 005°30'0 0.0
2015-Mar-01 02:31N 59°14' E 005°30'0 0.0
2015-Mar-01 01:31N 59°14' E 005°30'0 0.0
2015-Mar-01 00:31N 59°14' E 005°30'0 0.0
2015-Feb-28 23:31N 59°14' E 005°31'0 0.0
2015-Feb-28 22:25N 59°14' E 005°30'0 0.0
2015-Feb-28 21:22N 59°14' E 005°30'0 0.0
2015-Feb-28 20:31N 59°14' E 005°30'0 0.0
2015-Feb-28 19:28N 59°14' E 005°30'0 0.0
2015-Feb-28 18:31N 59°14' E 005°31'0 0.0
2015-Feb-28 17:28N 59°14' E 005°30'6 6.7
2015-Feb-28 16:33N 59°08' E 005°30'9 9.1
2015-Feb-28 15:33N 59°03' E 005°15'1313.2
2015-Feb-28 14:33N 58°50' E 005°10'2914.4
2015-Feb-28 12:32N 58°21' E 005°07'41013.5
2015-Feb-27 06:09N 51°41' E 002°30'813.9
2015-Feb-27 05:34N 51°35' E 002°21'1313.2
2015-Feb-27 04:33N 51°23' E 002°12'1212.4
2015-Feb-27 03:33N 51°13' E 001°60'1312.5
2015-Feb-27 02:33N 51°05' E 001°44'1211.5
2015-Feb-27 01:33N 50°57' E 001°31'1111.1
2015-Feb-27 00:32N 50°47' E 001°24'8111.6
2015-Feb-26 17:32N 49°51' W 000°08'1313.2
2015-Feb-26 16:33N 49°38' W 000°05'1211.9
2015-Feb-26 15:33N 49°29' E 000°06'3 3.5
2015-Feb-26 14:33N 49°29' E 000°12'0 0.3
2015-Feb-26 13:32N 49°29' E 000°12'0 0.0
2015-Feb-26 12:29N 49°29' E 000°12'0 0.0
2015-Feb-26 11:29N 49°29' E 000°12'0 0.0
2015-Feb-26 10:29N 49°29' E 000°12'0 0.0
2015-Feb-26 09:29N 49°29' E 000°12'0 0.0
2015-Feb-26 08:29N 49°29' E 000°12'0 0.0
2015-Feb-26 07:29N 49°29' E 000°12'0 0.0
2015-Feb-26 06:29N 49°29' E 000°12'0 0.0
2015-Feb-26 05:29N 49°29' E 000°12'0 0.0
2015-Feb-26 04:29N 49°29' E 000°12'0 0.0
2015-Feb-26 03:29N 49°29' E 000°12'0 0.0
2015-Feb-26 02:29N 49°29' E 000°12'0 0.0
2015-Feb-26 01:32N 49°29' E 000°12'0 0.0
2015-Feb-26 00:32N 49°29' E 000°12'0 0.0
2015-Feb-25 23:32N 49°29' E 000°12'0 0.0
2015-Feb-25 22:32N 49°29' E 000°12'0 0.0
2015-Feb-25 21:32N 49°29' E 000°12'0 0.0
2015-Feb-25 20:32N 49°29' E 000°12'0 0.0
2015-Feb-25 19:32N 49°29' E 000°12'0 0.0
2015-Feb-25 18:32N 49°29' E 000°12'0 0.0
2015-Feb-25 17:34N 49°29' E 000°12'2 1.5
2015-Feb-25 16:33N 49°28' E 000°10'10 9.6
2015-Feb-25 15:33N 49°31' W 000°04'3 3.2
2015-Feb-25 14:33N 49°33' W 000°07'0 0.0
2015-Feb-25 13:33N 49°33' W 000°07'0 0.0
2015-Feb-25 12:33N 49°33' W 000°07'0 0.0
2015-Feb-25 11:34N 49°33' W 000°07'0 0.0
2015-Feb-25 10:33N 49°33' W 000°07'0 0.0
2015-Feb-25 09:33N 49°33' W 000°07'0 0.1
2015-Feb-25 08:33N 49°33' W 000°08'0 0.0
2015-Feb-25 07:33N 49°33' W 000°08'0 0.1
2015-Feb-25 06:33N 49°33' W 000°07'0 0.0
2015-Feb-25 05:33N 49°33' W 000°07'0 0.0
2015-Feb-25 04:33N 49°33' W 000°07'0 0.0
2015-Feb-25 03:33N 49°33' W 000°07'0 0.0
2015-Feb-25 02:33N 49°33' W 000°07'0 0.0
2015-Feb-25 01:33N 49°33' W 000°07'0 0.0
2015-Feb-25 00:33N 49°33' W 000°07'0 0.0
2015-Feb-24 23:33N 49°33' W 000°07'0 0.0
2015-Feb-24 22:33N 49°33' W 000°07'0 0.0
2015-Feb-24 21:33N 49°33' W 000°07'0 0.0
2015-Feb-24 20:33N 49°33' W 000°07'0 0.1
2015-Feb-24 19:34N 49°33' W 000°07'0 0.1
2015-Feb-24 18:33N 49°33' W 000°07'0 0.0
2015-Feb-24 17:33N 49°33' W 000°07'0 0.0
2015-Feb-24 16:34N 49°33' W 000°07'0 0.0
2015-Feb-24 15:33N 49°33' W 000°07'0 0.0
2015-Feb-24 14:33N 49°33' W 000°07'0 0.0
2015-Feb-24 13:33N 49°33' W 000°07'0 0.0
2015-Feb-24 12:34N 49°33' W 000°07'0 0.0
2015-Feb-24 11:33N 49°33' W 000°07'0 0.0
2015-Feb-24 10:33N 49°33' W 000°07'0 0.0
2015-Feb-24 09:33N 49°33' W 000°07'0 0.0
2015-Feb-24 08:33N 49°33' W 000°07'0 0.0
2015-Feb-24 07:33N 49°33' W 000°07'0 0.1
2015-Feb-24 06:34N 49°33' W 000°07'0 0.0
2015-Feb-24 05:34N 49°33' W 000°07'0 0.0
2015-Feb-24 04:33N 49°33' W 000°07'0 0.0
2015-Feb-24 03:33N 49°33' W 000°07'0 0.0
2015-Feb-24 02:33N 49°33' W 000°07'0 0.0
2015-Feb-24 01:33N 49°33' W 000°07'0 0.0
2015-Feb-24 00:33N 49°33' W 000°07'0 0.0
2015-Feb-23 23:33N 49°33' W 000°07'0 0.1
2015-Feb-23 22:33N 49°33' W 000°07'0 0.0
2015-Feb-23 21:33N 49°33' W 000°07'0 0.0
2015-Feb-23 20:33N 49°33' W 000°07'0 0.0
2015-Feb-23 19:33N 49°33' W 000°07'0 0.1
2015-Feb-23 18:34N 49°33' W 000°07'0 0.0
2015-Feb-23 17:33N 49°33' W 000°07'0 0.0
2015-Feb-23 16:34N 49°33' W 000°07'0 0.0
2015-Feb-23 15:34N 49°33' W 000°07'0 0.0
2015-Feb-23 14:33N 49°33' W 000°07'0 0.0
2015-Feb-23 13:33N 49°33' W 000°07'0 0.1
2015-Feb-23 12:34N 49°33' W 000°07'7 7.3
2015-Feb-23 11:33N 49°40' W 000°13'1712.4
2015-Feb-23 10:11N 49°57' W 000°12'5211.0
2015-Feb-23 05:31N 50°39' E 000°35'1111.8
2015-Feb-23 04:33N 50°45' E 000°50'10 9.7
2015-Feb-23 03:32N 50°51' E 001°03'8 8.3
2015-Feb-23 02:33N 50°56' E 001°13'7 7.2
2015-Feb-23 01:33N 51°00' E 001°22'6 6.1
2015-Feb-23 00:33N 51°05' E 001°29'8 8.5
2015-Feb-22 23:34N 51°10' E 001°39'1111.1
2015-Feb-22 22:33N 51°18' E 001°51'1010.3
2015-Feb-22 21:33N 51°24' E 002°05'1312.0
2015-Feb-22 20:28N 51°22' E 002°26'1112.5
2015-Feb-22 19:33N 51°23' E 002°44'1110.9
2015-Feb-22 18:33N 51°24' E 003°01'1313.2
2015-Feb-22 17:33N 51°25' E 003°22'1212.5
2015-Feb-22 16:33N 51°28' E 003°41'1 0.9
2015-Feb-22 15:33N 51°28' E 003°43'0 0.0
2015-Feb-22 14:27N 51°28' E 003°43'0 0.0
2015-Feb-22 13:24N 51°28' E 003°43'0 0.0
2015-Feb-22 12:33N 51°28' E 003°43'0 0.0
2015-Feb-22 09:27N 51°28' E 003°43'0 0.0
2015-Feb-22 08:15N 51°28' E 003°43'0 0.0
2015-Feb-22 07:27N 51°28' E 003°43'0 0.0
2015-Feb-22 06:27N 51°28' E 003°43'0 0.0
2015-Feb-22 05:27N 51°28' E 003°43'0 0.0
2015-Feb-22 04:27N 51°28' E 003°43'0 0.0
2015-Feb-22 03:33N 51°28' E 003°43'0 0.0
2015-Feb-22 02:27N 51°28' E 003°43'0 0.0
2015-Feb-22 01:33N 51°28' E 003°43'0 0.0
2015-Feb-22 00:33N 51°28' E 003°43'0 0.0
2015-Feb-21 23:33N 51°28' E 003°43'3 3.0
2015-Feb-21 22:34N 51°26' E 003°39'1312.7
2015-Feb-21 21:33N 51°24' E 003°19'1211.6
2015-Feb-21 20:33N 51°25' E 003°00'1414.2
2015-Feb-21 19:33N 51°38' E 003°11'1212.1
2015-Feb-21 18:32N 51°48' E 003°21'1 1.1
2015-Feb-21 17:13N 51°48' E 003°23'0 0.0
2015-Feb-21 15:19N 51°48' E 003°23'0 0.0
2015-Feb-21 14:04N 51°48' E 003°23'0 0.1
2015-Feb-21 13:16N 51°48' E 003°23'0 0.0
2015-Feb-21 11:16N 51°48' E 003°23'0 0.0
2015-Feb-21 09:13N 51°48' E 003°23'0 0.2
2015-Feb-21 08:31N 51°48' E 003°23'0 0.0
2015-Feb-21 07:22N 51°48' E 003°23'0 0.0
2015-Feb-21 06:22N 51°48' E 003°23'0 0.0
2015-Feb-21 05:07N 51°48' E 003°23'0 0.0
2015-Feb-21 03:07N 51°48' E 003°23'0 0.0
2015-Feb-21 02:10N 51°48' E 003°23'0 0.1
2015-Feb-21 01:28N 51°48' E 003°23'0 0.1
2015-Feb-21 00:31N 51°48' E 003°23'0 0.0
2015-Feb-20 22:31N 51°48' E 003°23'0 0.0
2015-Feb-20 21:31N 51°48' E 003°23'0 0.0
2015-Feb-20 20:07N 51°48' E 003°23'0 0.0
2015-Feb-20 19:31N 51°48' E 003°23'1 0.6
2015-Feb-20 17:33N 51°49' E 003°22'1110.8
2015-Feb-20 16:31N 52°00' E 003°23'1010.5
2015-Feb-20 15:32N 52°05' E 003°37'3 2.0
2015-Feb-20 14:06N 52°08' E 003°39'0 0.0
2015-Feb-20 13:30N 52°08' E 003°39'0 0.0
2015-Feb-20 12:33N 52°08' E 003°39'0 0.1
2015-Feb-20 11:33N 52°08' E 003°39'0 0.0
2015-Feb-20 10:33N 52°08' E 003°39'0 0.0
2015-Feb-20 07:33N 52°08' E 003°39'0 0.0
2015-Feb-20 06:21N 52°08' E 003°39'0 0.0
2015-Feb-20 05:33N 52°08' E 003°39'0 0.0
2015-Feb-20 04:33N 52°08' E 003°39'0 0.0
2015-Feb-20 03:09N 52°08' E 003°39'0 0.0
2015-Feb-20 02:15N 52°08' E 003°39'0 0.0
2015-Feb-20 01:27N 52°08' E 003°39'0 0.0
2015-Feb-20 00:33N 52°08' E 003°39'0 0.0
2015-Feb-19 23:33N 52°08' E 003°39'0 0.0
2015-Feb-19 22:18N 52°08' E 003°39'0 0.0
2015-Feb-19 21:30N 52°08' E 003°39'0 0.0
2015-Feb-19 20:12N 52°08' E 003°39'0 0.0
2015-Feb-19 19:09N 52°08' E 003°39'0 0.0
2015-Feb-19 18:24N 52°08' E 003°39'0 0.0
2015-Feb-19 17:18N 52°08' E 003°39'0 0.0
2015-Feb-19 16:21N 52°08' E 003°39'  

Dump ship's entire track history